Time;durP1;ratioP1;P1;durP2;ratioP2;P2;SDS_P1;SDS_P2;PMS_P1;PMS_P2;Temp;Humidity;BMP_temperature;BMP_pressure;BME280_temperature;BME280_humidity;BME280_pressure;Samples;Min_cycle;Max_cycle;Signal;HPM_P1;HPM_P2
2022/01/24 00:00:17;;;;;;;254.20;154.10;;;;;;;0.56;67.21;102259.37;110013;1256;21977;-79
2022/01/24 00:03:06;;;;;;;256.20;155.30;;;;;;;0.55;67.34;102261.14;110367;1256;21978;-79
2022/01/24 00:05:40;;;;;;;266.70;158.70;;;;;;;0.52;67.34;102258.84;110395;1256;21961;-79
2022/01/24 00:08:21;;;;;;;235.60;142.50;;;;;;;0.48;67.48;102257.92;110595;1250;23095;-79
2022/01/24 00:10:54;;;;;;;241.10;142.10;;;;;;;0.44;67.57;102254.61;111125;1250;22758;-80
2022/01/24 00:16:57;;;;;;;212.40;124.90;;;;;;;0.40;67.84;102259.60;110894;1250;22367;-79
2022/01/24 00:27:37;;;;;;;216.00;125.20;;;;;;;0.38;68.17;102259.32;111031;1250;22975;-80
2022/01/24 00:30:18;;;;;;;208.40;126.10;;;;;;;0.44;68.16;102253.56;111477;1249;23056;-79
2022/01/24 00:33:12;;;;;;;200.50;120.20;;;;;;;0.47;68.00;102250.85;111020;1250;23596;-79
2022/01/24 00:35:56;;;;;;;;;;;;;;;;;;;;;
2022/01/24 00:38:31;;;;;;;203.80;125.70;;;;;;;0.54;68.10;102250.27;111047;1250;22006;-79
2022/01/24 00:41:12;;;;;;;211.10;126.30;;;;;;;0.57;68.05;102255.51;111158;1250;23020;-80
2022/01/24 00:46:41;;;;;;;192.50;125.10;;;;;;;0.64;67.95;102258.55;110748;1250;21963;-79
2022/01/24 00:54:43;;;;;;;189.20;121.40;;;;;;;0.67;68.07;102256.88;110735;1250;22035;-79
2022/01/24 00:57:14;;;;;;;204.50;125.10;;;;;;;0.60;67.91;102260.77;110792;1249;21969;-78
2022/01/24 00:59:48;;;;;;;195.80;123.10;;;;;;;0.51;67.88;102261.45;110299;1256;21986;-79
2022/01/24 01:02:32;;;;;;;194.90;122.40;;;;;;;0.44;68.00;102262.05;110221;1256;22483;-79
2022/01/24 01:05:34;;;;;;;213.80;129.90;;;;;;;0.41;68.08;102262.17;110542;1256;23664;-79
2022/01/24 01:21:36;;;;;;;177.30;114.50;;;;;;;0.56;68.63;102264.75;110830;1253;22362;-81
2022/01/24 01:24:48;;;;;;;;;;;;;;;;;;;;;
2022/01/24 01:28:18;;;;;;;172.80;110.90;;;;;;;0.71;68.94;102263.51;110614;1254;22639;-81
2022/01/24 01:39:25;;;;;;;;;;;;;;;;;;;;;
2022/01/24 01:53:15;;;;;;;;;;;;;;;;;;;;;
2022/01/24 01:56:53;;;;;;;;;;;;;;;;;;;;;
2022/01/24 01:59:55;;;;;;;128.80;86.00;;;;;;;0.98;68.55;102247.90;109394;1265;21994;-80
2022/01/24 02:02:51;;;;;;;;;;;;;;;;;;;;;
2022/01/24 02:06:27;;;;;;;160.70;108.20;;;;;;;0.98;68.12;102248.09;109431;1266;23628;-80
2022/01/24 02:09:21;;;;;;;159.50;107.80;;;;;;;0.88;67.96;102248.28;109243;1265;21995;-80
2022/01/24 02:12:58;;;;;;;;;;;;;;;;;;;;;
2022/01/24 02:16:24;;;;;;;165.50;111.00;;;;;;;0.66;68.18;102256.77;109219;1268;22012;-80
2022/01/24 02:20:24;;;;;;;155.50;106.80;;;;;;;0.57;68.27;102258.30;109683;1264;21976;-79
2022/01/24 02:23:48;;;;;;;163.50;108.50;;;;;;;0.45;68.34;102263.92;110040;1261;22000;-80
2022/01/24 02:26:55;;;;;;;158.30;108.70;;;;;;;0.37;68.49;102269.05;109679;1261;22709;-80
2022/01/24 02:31:36;;;;;;;161.40;105.80;;;;;;;0.30;68.65;102272.10;108854;1267;23589;-79
2022/01/24 02:35:30;;;;;;;157.30;101.10;;;;;;;0.17;68.89;102270.30;108736;1273;23739;-79
2022/01/24 02:48:57;;;;;;;164.80;102.00;;;;;;;0.18;69.67;102276.16;107933;1286;23065;-80
2022/01/24 02:54:56;;;;;;;;;;;;;;;;;;;;;
2022/01/24 02:57:55;;;;;;;;;;;;;;;;;;;;;
2022/01/24 03:01:06;;;;;;;;;;;;;;;;;;;;;
2022/01/24 03:04:59;;;;;;;;;;;;;;;;;;;;;
2022/01/24 03:07:32;;;;;;;154.70;104.10;;;;;;;0.52;69.93;102264.89;108669;1270;23158;-79
2022/01/24 03:11:20;;;;;;;155.10;110.90;;;;;;;0.54;69.92;102265.19;108793;1273;22016;-80
2022/01/24 03:14:46;;;;;;;170.80;121.20;;;;;;;0.55;70.09;102264.79;108583;1276;22004;-79
2022/01/24 03:18:15;;;;;;;196.30;139.30;;;;;;;0.56;69.98;102263.36;108549;1276;22117;-81
2022/01/24 03:21:41;;;;;;;178.10;132.80;;;;;;;0.54;69.84;102265.00;108678;1273;23025;-80
2022/01/24 03:24:45;;;;;;;186.80;133.30;;;;;;;0.59;69.99;102268.10;108517;1273;22455;-80
2022/01/24 03:28:10;;;;;;;;;;;;;;;;;;;;;
2022/01/24 03:31:07;;;;;;;174.10;129.80;;;;;;;0.75;70.10;102269.40;109428;1267;21982;-79
2022/01/24 03:34:27;;;;;;;167.60;124.60;;;;;;;0.80;69.87;102266.45;109897;1256;22918;-79
2022/01/24 03:38:14;;;;;;;171.20;122.80;;;;;;;0.82;69.77;102265.83;110673;1256;21978;-80
2022/01/24 03:41:24;;;;;;;168.80;129.60;;;;;;;0.81;69.63;102265.37;110424;1259;23787;-80
2022/01/24 03:44:58;;;;;;;;;;;;;;;;;;;;;
2022/01/24 03:48:02;;;;;;;;;;;;;;;0.81;69.61;102264.50;109324;1265;23683;-79
2022/01/24 03:52:02;;;;;;;;;;;;;;;;;;;;;
2022/01/24 03:55:01;;;;;;;;;;;;;;;;;;;;;
2022/01/24 03:58:41;;;;;;;178.20;115.40;;;;;;;0.63;69.95;102268.11;108995;1270;22006;-80
2022/01/24 04:01:56;;;;;;;;;;;;;;;;;;;;;
2022/01/24 04:05:41;;;;;;;;;;;;;;;;;;;;;
2022/01/24 04:09:00;;;;;;;;;;;;;;;;;;;;;
2022/01/24 04:12:25;;;;;;;158.70;108.40;;;;;;;0.50;69.87;102268.27;108516;1276;22010;-80
2022/01/24 04:16:09;;;;;;;;;;;;;;;;;;;;;
2022/01/24 04:21:16;;;;;;;;;;;;;;;;;;;;;
2022/01/24 04:22:30;;;;;;;;;;;;;;;;;;;;;
2022/01/24 04:25:05;;;;;;;152.20;105.00;;;;;;;0.60;70.06;102268.25;108142;1279;22066;-79
2022/01/24 04:28:07;;;;;;;152.50;104.00;;;;;;;0.59;70.12;102266.52;108667;1276;22711;-79
2022/01/24 04:31:49;;;;;;;;;;;;;;;;;;;;;
2022/01/24 04:35:16;;;;;;;146.50;101.20;;;;;;;0.55;70.14;102284.72;109087;1269;23426;-79
2022/01/24 04:38:49;;;;;;;;;;;;;;;;;;;;;
2022/01/24 04:42:35;;;;;;;;;;;;;;;;;;;;;
2022/01/24 04:56:31;;;;;;;137.40;90.40;;;;;;;0.39;70.63;102279.73;109328;1267;22474;-79
2022/01/24 04:59:34;;;;;;;130.00;88.20;;;;;;;0.43;70.83;102282.00;109100;1270;23041;-79
2022/01/24 05:03:19;;;;;;;136.00;90.90;;;;;;;0.51;70.88;102279.48;108894;1273;21993;-80
2022/01/24 05:06:37;;;;;;;126.20;86.80;;;;;;;0.59;70.88;102275.89;108898;1273;23022;-80
2022/01/24 05:10:11;;;;;;;116.80;84.20;;;;;;;0.64;70.71;102274.50;108666;1274;22056;-82
2022/01/24 05:25:19;;;;;;;109.60;77.00;;;;;;;0.74;70.70;102275.70;108307;1282;22099;-80
2022/01/24 05:28:41;;;;;;;103.70;78.70;;;;;;;0.74;70.61;102275.69;108390;1282;23715;-80
2022/01/24 05:31:31;;;;;;;;;;;;;;;;;;;;;
2022/01/24 05:34:19;;;;;;;113.10;77.80;;;;;;;0.75;70.73;102276.70;108281;1277;22050;-78
2022/01/24 05:37:34;;;;;;;114.80;76.30;;;;;;;0.73;70.78;102282.84;108453;1276;22009;-79
2022/01/24 05:40:25;;;;;;;122.20;91.90;;;;;;;0.65;70.58;102282.77;108612;1276;23599;-80
2022/01/24 05:43:19;;;;;;;;;;;;;;;;;;;;;
2022/01/24 05:46:10;;;;;;;124.20;93.20;;;;;;;0.52;70.84;102279.99;108736;1273;23633;-80
2022/01/24 05:50:18;;;;;;;117.00;85.40;;;;;;;0.49;71.04;102289.97;108794;1273;22768;-80
2022/01/24 05:54:22;;;;;;;;;;;;;;;;;;;;;
2022/01/24 05:57:36;;;;;;;;;;;;;;;;;;;;;
2022/01/24 06:00:39;;;;;;;108.30;76.90;;;;;;;0.56;71.61;102297.02;108252;1279;22102;-81
2022/01/24 06:04:07;;;;;;;;;;;;;;;;;;;;;
2022/01/24 06:07:37;;;;;;;103.70;72.80;;;;;;;0.61;71.32;102298.36;107775;1289;23074;-81
2022/01/24 06:10:29;;;;;;;;;;;;;;;;;;;;;
2022/01/24 06:14:08;;;;;;;212.80;142.80;;;;;;;0.66;71.59;102292.96;107594;1287;22008;-81
2022/01/24 06:16:48;;;;;;;125.30;94.00;;;;;;;0.72;71.67;102299.00;107810;1287;22021;-81
2022/01/24 06:19:42;;;;;;;;;;;;;;;;;;;;;
2022/01/24 06:22:55;;;;;;;112.20;77.40;;;;;;;0.63;71.23;102306.27;107194;1293;22025;-79
2022/01/24 06:29:18;;;;;;;;;;;;;;;;;;;;;
2022/01/24 06:32:16;;;;;;;101.90;67.80;;;;;;;0.64;71.54;102309.34;106683;1295;22029;-80
2022/01/24 06:35:04;;;;;;;113.60;79.50;;;;;;;0.65;71.56;102313.80;107388;1291;22175;-81
2022/01/24 06:38:25;;;;;;;;;;;;;;;;;;;;;
2022/01/24 06:41:51;;;;;;;104.00;75.50;;;;;;;0.74;71.83;102303.44;106941;1297;22015;-80
2022/01/24 06:44:52;;;;;;;;;;;;;;;;;;;;;
2022/01/24 06:47:42;;;;;;;106.30;79.00;;;;;;;0.84;71.96;102306.73;106832;1297;22033;-80
2022/01/24 06:50:58;;;;;;;;;;;;;;;;;;;;;
2022/01/24 06:57:25;;;;;;;116.60;79.00;;;;;;;0.93;71.88;102314.17;107535;1285;22045;-81
2022/01/24 07:00:39;;;;;;;83.70;61.00;;;;;;;0.98;71.78;102311.24;107894;1285;22015;-80
2022/01/24 07:03:21;;;;;;;85.30;53.00;;;;;;;0.98;71.67;102315.73;107683;1284;22029;-79
2022/01/24 07:06:17;;;;;;;80.10;57.40;;;;;;;0.94;71.65;102322.29;108049;1280;22106;-81
2022/01/24 07:09:19;;;;;;;;;;;;;;;;;;;;;
2022/01/24 07:12:50;;;;;;;78.30;53.90;;;;;;;0.96;71.95;102325.69;108463;1281;22010;-82
2022/01/24 07:15:43;;;;;;;;;;;;;;;;;;;;;
2022/01/24 07:22:09;;;;;;;69.90;50.00;;;;;;;1.00;71.82;102336.15;108477;1282;22006;-82
2022/01/24 07:25:16;;;;;;;63.00;47.60;;;;;;;1.00;71.83;102337.20;108472;1282;22022;-82
2022/01/24 07:28:48;;;;;;;;;;;;;;;;;;;;;
2022/01/24 07:31:53;;;;;;;77.20;51.10;;;;;;;1.08;72.14;102347.80;107776;1293;22057;-85
2022/01/24 07:34:45;;;;;;;73.30;50.90;;;;;;;1.12;72.05;102346.96;107122;1293;22021;-83
2022/01/24 07:38:34;;;;;;;;;;;;;;;;;;;;;
2022/01/24 07:45:42;;;;;;;;;;;;;;;;;;;;;
2022/01/24 07:49:36;;;;;;;;;;;;;;;;;;;;;
2022/01/24 07:52:32;;;;;;;78.00;56.90;;;;;;;0.94;71.65;102335.48;110281;1263;22383;-83
2022/01/24 07:56:03;;;;;;;;;;;;;;;;;;;;;
2022/01/24 07:59:37;;;;;;;;;;;;;;;;;;;;;
2022/01/24 08:03:14;;;;;;;;;;;;;;;;;;;;;
2022/01/24 08:06:43;;;;;;;;;;;;;;;;;;;;;
2022/01/24 08:10:31;;;;;;;76.60;53.10;;;;;;;1.26;72.19;102352.35;112001;1247;21984;-85
2022/01/24 08:13:32;;;;;;;73.80;52.60;;;;;;;1.32;72.07;102356.96;111863;1247;23704;-84
2022/01/24 08:17:14;;;;;;;75.00;55.20;;;;;;;1.41;72.07;102360.25;111642;1252;22030;-84
2022/01/24 08:21:13;;;;;;;;;;;;;;;;;;;;;
2022/01/24 08:25:28;;;;;;;;;;;;;;;;;;;;;
2022/01/24 08:32:50;;;;;;;;;;;;;;;;;;;;;
2022/01/24 09:06:28;;;;;;;;;;;;;;;;;;;;;
2022/01/24 09:09:41;;;;;;;65.20;49.20;;;;;;;1.95;71.05;102356.89;110381;1272;22370;-81
2022/01/24 09:13:21;;;;;;;;;;;;;;;;;;;;;
2022/01/24 09:17:38;;;;;;;58.80;43.90;;;;;;;2.09;70.73;102354.38;109933;1281;22304;-82
2022/01/24 09:19:55;;;;;;;54.00;41.50;;;;;;;2.12;70.69;102355.83;109858;1282;21847;-80
2022/01/24 09:23:18;;;;;;;55.30;39.50;;;;;;;2.09;69.99;102356.14;109387;1286;22246;-80
2022/01/24 09:26:50;;;;;;;49.60;37.20;;;;;;;1.94;69.46;102356.94;109487;1280;21916;-81
2022/01/24 09:30:32;;;;;;;;;;;;;;;;;;;;;
2022/01/24 09:34:22;;;;;;;;;;;;;;;;;;;;;
2022/01/24 09:37:47;;;;;;;60.60;46.60;;;;;;;1.83;70.08;102351.27;110248;1271;21925;-82
2022/01/24 09:41:48;;;;;;;56.00;41.90;;;;;;;1.98;70.28;102349.13;110330;1271;22374;-82
2022/01/24 09:45:05;;;;;;;46.80;36.70;;;;;;;2.11;69.90;102350.52;110688;1266;22622;-81
2022/01/24 09:48:51;;;;;;;53.10;37.10;;;;;;;2.04;69.28;102350.27;110386;1273;22402;-81
2022/01/24 09:51:59;;;;;;;52.30;38.70;;;;;;;1.98;69.38;102343.39;110212;1273;21982;-82
2022/01/24 09:54:36;;;;;;;57.80;41.30;;;;;;;2.01;69.56;102343.78;110098;1275;21998;-82
2022/01/24 09:57:55;;;;;;;49.50;36.70;;;;;;;2.08;69.62;102347.30;110081;1276;22291;-81
2022/01/24 10:02:27;;;;;;;;;;;;;;;;;;;;;
2022/01/24 10:06:22;;;;;;;77.20;48.80;;;;;;;2.10;69.61;102345.65;110492;1269;21973;-81
2022/01/24 10:10:00;;;;;;;58.90;41.00;;;;;;;2.25;69.68;102349.02;110666;1267;21932;-81
2022/01/24 10:17:30;;;;;;;79.50;57.10;;;;;;;2.46;69.20;102335.44;110575;1269;21929;-80
2022/01/24 10:20:54;;;;;;;64.70;45.80;;;;;;;2.57;69.22;102335.48;110670;1267;21926;-80
2022/01/24 10:23:52;;;;;;;68.30;48.30;;;;;;;2.61;68.65;102329.02;110452;1267;21945;-82
2022/01/24 10:27:48;;;;;;;52.00;39.60;;;;;;;2.64;68.69;102322.99;110721;1266;21927;-81
2022/01/24 10:31:33;;;;;;;55.70;39.80;;;;;;;2.62;68.53;102319.61;110659;1269;22232;-82
2022/01/24 10:34:47;;;;;;;54.60;42.10;;;;;;;2.58;68.60;102317.66;110448;1264;21901;-81
2022/01/24 10:42:37;;;;;;;59.20;43.50;;;;;;;2.79;68.67;102324.77;110370;1272;21925;-80
2022/01/24 10:45:52;;;;;;;63.90;47.90;;;;;;;2.86;68.36;102319.77;110430;1272;21955;-81
2022/01/24 10:49:12;;;;;;;;;;;;;;;;;;;;;
2022/01/24 10:52:45;;;;;;;55.40;42.70;;;;;;;2.98;68.03;102312.23;110463;1268;22013;-81
2022/01/24 10:55:53;;;;;;;;;;;;;;;;;;;;;
2022/01/24 11:02:57;;;;;;;;;;;;;;;;;;;;;
2022/01/24 11:07:06;;;;;;;;;;;;;;;;;;;;;
2022/01/24 11:10:40;;;;;;;59.30;46.30;;;;;;;2.88;67.30;102287.98;109837;1282;21830;-80
2022/01/24 11:13:47;;;;;;;;;;;;;;;;;;;;;
2022/01/24 11:16:32;;;;;;;59.90;45.90;;;;;;;2.95;67.49;102291.11;109857;1276;22362;-81
2022/01/24 11:19:48;;;;;;;48.20;40.70;;;;;;;3.01;67.57;102292.05;110025;1273;21900;-81
2022/01/24 11:23:39;;;;;;;54.90;42.70;;;;;;;3.07;67.59;102294.41;110399;1272;21924;-81
2022/01/24 11:26:30;;;;;;;50.60;39.50;;;;;;;3.05;67.40;102286.63;110456;1273;22003;-82
2022/01/24 11:30:08;;;;;;;57.10;44.70;;;;;;;3.09;67.43;102287.17;110623;1266;21956;-81
2022/01/24 11:33:40;;;;;;;;;;;;;;;;;;;;;
2022/01/24 11:36:53;;;;;;;56.00;41.70;;;;;;;3.00;67.25;102278.52;111213;1260;21899;-82
2022/01/24 11:40:05;;;;;;;;;;;;;;;;;;;;;
2022/01/24 11:43:58;;;;;;;;;;;;;;;;;;;;;
2022/01/24 11:47:31;;;;;;;;;;;;;;;;;;;;;
2022/01/24 11:51:12;;;;;;;57.80;43.60;;;;;;;3.01;67.01;102281.48;109883;1280;22355;-82
2022/01/24 11:55:02;;;;;;;69.40;51.10;;;;;;;3.05;67.35;102268.20;109779;1284;22014;-80
2022/01/24 11:58:11;;;;;;;62.00;46.90;;;;;;;3.13;67.34;102268.16;109530;1284;21957;-80
2022/01/24 12:01:45;;;;;;;57.50;43.90;;;;;;;3.18;67.18;102264.63;109376;1284;22200;-82
2022/01/24 12:06:14;;;;;;;;;;;;;;;;;;;;;
2022/01/24 12:09:35;;;;;;;66.80;52.50;;;;;;;3.14;67.19;102261.20;107637;1302;21891;-81
2022/01/24 12:12:46;;;;;;;78.00;57.90;;;;;;;3.18;67.33;102259.07;108132;1296;21913;-82
2022/01/24 12:16:10;;;;;;;57.50;48.10;;;;;;;3.25;67.25;102254.88;108805;1290;21966;-82
2022/01/24 12:19:18;;;;;;;54.60;43.00;;;;;;;3.31;66.97;102250.77;108839;1291;21870;-81
2022/01/24 12:22:41;;;;;;;66.40;52.80;;;;;;;3.35;66.82;102247.97;108682;1287;21862;-81
2022/01/24 12:26:20;;;;;;;67.50;57.30;;;;;;;3.35;66.47;102245.20;109158;1290;21902;-81
2022/01/24 12:29:28;;;;;;;;;;;;;;;;;;;;;
2022/01/24 12:32:36;;;;;;;52.50;41.40;;;;;;;3.21;66.10;102245.52;108924;1292;21958;-81
2022/01/24 12:36:08;;;;;;;;;;;;;;;;;;;;;
2022/01/24 12:38:46;;;;;;;60.80;47.00;;;;;;;3.08;66.81;102234.30;108053;1295;21894;-80
2022/01/24 12:41:35;;;;;;;47.40;39.10;;;;;;;3.12;66.86;102230.27;108281;1287;22374;-81
2022/01/24 12:47:30;;;;;;;56.10;41.30;;;;;;;3.15;67.08;102224.05;110488;1270;21966;-80
2022/01/24 12:50:24;;;;;;;62.90;44.40;;;;;;;3.23;67.03;102229.39;110373;1270;22390;-80
2022/01/24 12:54:05;;;;;;;;;;;;;;;;;;;;;
2022/01/24 12:57:39;;;;;;;;;;;;;;;;;;;;;
2022/01/24 13:00:51;;;;;;;77.10;60.10;;;;;;;3.46;67.20;102228.46;110631;1268;21941;-82
2022/01/24 13:04:21;;;;;;;90.70;62.10;;;;;;;3.54;67.13;102222.66;110741;1269;21941;-81
2022/01/24 13:07:17;;;;;;;71.80;51.70;;;;;;;3.60;67.01;102221.84;110564;1270;21875;-81
2022/01/24 13:11:21;;;;;;;64.80;53.20;;;;;;;3.61;66.72;102227.34;110438;1270;21976;-82
2022/01/24 13:24:40;;;;;;;;;;;;;;;3.35;66.60;102215.05;109846;1282;22436;-82
2022/01/24 13:27:52;;;;;;;54.20;41.00;;;;;;;3.28;66.81;102219.40;109742;1282;22007;-82
2022/01/24 13:31:10;;;;;;;61.40;42.30;;;;;;;3.29;66.72;102213.80;109854;1282;22239;-82
2022/01/24 13:34:09;;;;;;;;;;;;;;;;;;;;;
2022/01/24 13:37:24;;;;;;;;;;;;;;;;;;;;;
2022/01/24 13:40:53;;;;;;;55.20;37.70;;;;;;;3.40;66.98;102213.45;110157;1274;21932;-82
2022/01/24 13:44:19;;;;;;;53.30;40.00;;;;;;;3.36;66.78;102215.52;109826;1283;22025;-81
2022/01/24 13:47:33;;;;;;;55.00;42.80;;;;;;;3.35;66.83;102211.08;109228;1287;21862;-81
2022/01/24 13:51:21;;;;;;;;;;;;;;;;;;;;;
2022/01/24 13:54:09;;;;;;;64.00;51.20;;;;;;;3.32;66.89;102201.79;108719;1291;21895;-80
2022/01/24 13:57:19;;;;;;;62.70;46.90;;;;;;;3.31;67.05;102201.65;108918;1292;21902;-80
2022/01/24 14:00:16;;;;;;;;;;;;;;;;;;;;;
2022/01/24 14:03:14;;;;;;;64.70;42.70;;;;;;;3.21;66.87;102197.60;108590;1291;21842;-81
2022/01/24 14:05:50;;;;;;;57.00;42.40;;;;;;;3.17;67.22;102192.77;109300;1288;21876;-82
2022/01/24 14:10:03;;;;;;;;;;;;;;;;;;;;;
2022/01/24 14:13:19;;;;;;;;;;;;;;;;;;;;;
2022/01/24 14:16:32;;;;;;;;;;;;;;;;;;;;;
2022/01/24 14:20:08;;;;;;;50.70;38.40;;;;;;;3.09;67.12;102193.00;108462;1295;21883;-81
2022/01/24 14:23:54;;;;;;;62.00;46.10;;;;;;;3.07;67.23;102191.89;108494;1295;22450;-81
2022/01/24 14:27:13;;;;;;;63.10;47.70;;;;;;;3.07;67.42;102192.73;108426;1295;21942;-81
2022/01/24 14:30:07;;;;;;;60.50;48.80;;;;;;;3.11;67.53;102193.76;108474;1283;22600;-80
2022/01/24 14:33:35;;;;;;;64.40;50.30;;;;;;;3.14;67.48;102197.12;109807;1282;22642;-81
2022/01/24 14:36:20;;;;;;;57.60;45.10;;;;;;;3.11;67.39;102196.70;109954;1279;21901;-82
2022/01/24 14:39:12;;;;;;;51.50;39.10;;;;;;;3.10;67.31;102193.45;109932;1279;21901;-82
2022/01/24 14:41:48;;;;;;;55.60;43.80;;;;;;;3.04;67.19;102190.09;109923;1280;21833;-82
2022/01/24 14:47:25;;;;;;;66.10;51.60;;;;;;;3.05;67.47;102198.91;109971;1280;21845;-82
2022/01/24 14:50:23;;;;;;;81.00;65.70;;;;;;;3.08;67.38;102199.32;109971;1279;21937;-82
2022/01/24 14:53:16;;;;;;;77.60;64.10;;;;;;;3.10;67.44;102198.16;109986;1279;21966;-82
2022/01/24 14:55:57;;;;;;;74.40;57.40;;;;;;;3.13;67.42;102197.00;109991;1281;21911;-84
2022/01/24 14:58:31;;;;;;;63.40;49.30;;;;;;;3.13;67.39;102195.05;109982;1280;22342;-84
2022/01/24 15:01:11;;;;;;;69.00;51.90;;;;;;;3.14;67.32;102193.96;109946;1280;21949;-83
2022/01/24 15:03:56;;;;;;;70.90;51.00;;;;;;;3.13;67.19;102192.63;109962;1279;21939;-81
2022/01/24 15:06:31;;;;;;;59.50;44.50;;;;;;;3.08;67.20;102187.30;109969;1279;21922;-81
2022/01/24 15:09:17;;;;;;;66.70;50.70;;;;;;;3.00;67.05;102189.93;109974;1280;21889;-83
2022/01/24 15:11:53;;;;;;;68.60;50.70;;;;;;;2.94;67.21;102186.79;109801;1281;21959;-83
2022/01/24 15:14:43;;;;;;;73.40;54.10;;;;;;;2.91;67.37;102188.11;109802;1281;21933;-82
2022/01/24 15:17:47;;;;;;;76.10;55.10;;;;;;;2.91;67.36;102182.41;109792;1281;21888;-82
2022/01/24 15:26:26;;;;;;;78.70;52.70;;;;;;;2.97;67.68;102186.63;109978;1278;22331;-83
2022/01/24 15:29:12;;;;;;;78.00;54.50;;;;;;;2.97;67.59;102183.83;109995;1273;21940;-83
2022/01/24 15:32:15;;;;;;;77.50;58.00;;;;;;;2.96;67.52;102186.30;110166;1276;21958;-82
2022/01/24 15:35:10;;;;;;;77.70;57.00;;;;;;;2.95;67.63;102185.69;109980;1278;22357;-83
2022/01/24 15:38:23;;;;;;;83.50;62.50;;;;;;;2.96;67.76;102186.85;109768;1284;21948;-81
2022/01/24 15:41:07;;;;;;;96.10;69.90;;;;;;;2.99;67.96;102187.58;109804;1284;21912;-81
2022/01/24 15:47:15;;;;;;;;;;;;;;;;;;;;;
2022/01/24 15:49:33;;;;;;;115.30;79.20;;;;;;;2.95;67.78;102187.23;109280;1287;21893;-81
2022/01/24 15:52:12;;;;;;;101.90;78.80;;;;;;;2.97;67.85;102189.40;109520;1283;22185;-81
2022/01/24 15:54:54;;;;;;;105.60;83.90;;;;;;;2.92;67.68;102176.92;109777;1284;21813;-82
2022/01/24 15:57:59;;;;;;;98.20;72.80;;;;;;;2.87;67.71;102176.13;110070;1276;21972;-82
2022/01/24 16:00:50;;;;;;;;;;;;;;;;;;;;;
2022/01/24 16:03:36;;;;;;;80.40;59.10;;;;;;;2.90;68.03;102180.52;110022;1276;22264;-82
2022/01/24 16:06:18;;;;;;;89.50;63.60;;;;;;;2.83;67.98;102177.73;110028;1279;21854;-82
2022/01/24 16:08:56;;;;;;;84.20;64.30;;;;;;;2.81;68.13;102182.15;110019;1275;21997;-81
2022/01/24 16:11:39;;;;;;;78.30;60.00;;;;;;;2.81;68.21;102181.43;109950;1281;22381;-83
2022/01/24 16:14:47;;;;;;;72.80;56.80;;;;;;;2.80;67.93;102184.13;109758;1283;21922;-84
2022/01/24 16:17:36;;;;;;;80.40;60.10;;;;;;;2.73;68.00;102177.85;109927;1283;21835;-84
2022/01/24 16:23:54;;;;;;;113.30;90.30;;;;;;;2.61;67.99;102176.46;109891;1285;21886;-85
2022/01/24 16:26:39;;;;;;;97.60;81.80;;;;;;;2.51;68.15;102175.17;109740;1285;21982;-80
2022/01/24 16:29:46;;;;;;;93.60;73.30;;;;;;;2.48;68.44;102177.09;109867;1281;21835;-85
2022/01/24 16:32:21;;;;;;;88.80;68.10;;;;;;;2.42;68.36;102178.42;109939;1281;22366;-80
2022/01/24 16:34:59;;;;;;;88.50;67.50;;;;;;;2.32;68.56;102169.65;109796;1284;21887;-81
2022/01/24 16:37:47;;;;;;;94.00;70.80;;;;;;;2.33;68.71;102168.05;109499;1287;21885;-80
2022/01/24 16:40:28;;;;;;;90.70;72.60;;;;;;;2.28;69.00;102166.70;109170;1290;23453;-80
2022/01/24 16:43:37;;;;;;;95.00;73.70;;;;;;;2.32;69.21;102163.55;108719;1292;21924;-79
2022/01/24 16:49:33;;;;;;;92.20;70.40;;;;;;;2.39;69.44;102161.67;108463;1295;21956;-80
2022/01/24 16:52:17;;;;;;;88.20;68.90;;;;;;;2.44;69.45;102164.77;108647;1292;21884;-80
2022/01/24 16:55:20;;;;;;;86.90;68.50;;;;;;;2.47;69.66;102164.30;109144;1287;21948;-82
2022/01/24 16:58:22;;;;;;;112.70;83.00;;;;;;;2.50;69.67;102163.59;109483;1287;21868;-79
2022/01/24 17:01:03;;;;;;;95.40;72.00;;;;;;;2.50;69.45;102168.10;109290;1288;22379;-83
2022/01/24 17:04:18;;;;;;;;;;;;;;;;;;;;;
2022/01/24 17:06:54;;;;;;;94.50;76.20;;;;;;;2.53;69.71;102170.07;110030;1279;22308;-82
2022/01/24 17:09:40;;;;;;;92.40;75.50;;;;;;;2.59;69.95;102175.54;110002;1279;21978;-81
2022/01/24 17:12:13;;;;;;;87.50;69.50;;;;;;;2.65;69.76;102175.42;109950;1279;21848;-82
2022/01/24 17:14:52;;;;;;;96.00;69.60;;;;;;;2.59;69.64;102173.11;109989;1279;21810;-82
2022/01/24 17:17:37;;;;;;;;;;;;;;;;;;;;;
2022/01/24 17:20:23;;;;;;;108.80;84.70;;;;;;;2.63;69.99;102175.86;110142;1276;21965;-80
2022/01/24 17:23:00;;;;;;;91.40;75.80;;;;;;;2.65;69.86;102169.33;110113;1275;21891;-83
2022/01/24 17:25:56;;;;;;;89.90;74.80;;;;;;;2.62;69.68;102168.43;110164;1274;21971;-81
2022/01/24 17:28:45;;;;;;;95.50;73.60;;;;;;;2.64;69.93;102167.30;110064;1276;21993;-82
2022/01/24 17:31:19;;;;;;;97.90;70.60;;;;;;;2.69;70.01;102171.76;110103;1276;21926;-77
2022/01/24 17:34:05;;;;;;;;;;;;;;;;;;;;;
2022/01/24 17:36:41;;;;;;;101.70;73.90;;;;;;;2.67;69.86;102168.73;110196;1276;21933;-80
2022/01/24 17:39:18;;;;;;;108.90;79.40;;;;;;;2.68;70.03;102165.04;110014;1278;21936;-80
2022/01/24 17:42:01;;;;;;;103.40;77.40;;;;;;;2.66;69.86;102168.26;110006;1279;21988;-80
2022/01/24 17:44:41;;;;;;;96.00;74.60;;;;;;;2.64;70.03;102166.06;109917;1282;21945;-80
2022/01/24 17:47:25;;;;;;;92.70;69.60;;;;;;;2.65;70.18;102160.82;109934;1282;21890;-81
2022/01/24 17:50:08;;;;;;;93.40;66.70;;;;;;;2.64;70.07;102155.83;109191;1287;21928;-81
2022/01/24 17:52:57;;;;;;;99.10;71.20;;;;;;;2.62;70.17;102165.64;109445;1287;21976;-80
2022/01/24 17:56:04;;;;;;;100.20;70.30;;;;;;;2.56;70.09;102164.20;109589;1286;21951;-80
2022/01/24 17:58:38;;;;;;;105.70;75.60;;;;;;;2.48;70.32;102160.39;109406;1287;21911;-80
2022/01/24 18:01:13;;;;;;;108.10;78.10;;;;;;;2.48;70.66;102158.82;109480;1287;21881;-80
2022/01/24 18:03:47;;;;;;;106.30;78.60;;;;;;;2.50;70.87;102158.35;109697;1286;21957;-81
2022/01/24 18:06:21;;;;;;;107.40;78.60;;;;;;;2.50;70.92;102155.92;109340;1288;21857;-80
2022/01/24 18:09:03;;;;;;;109.10;81.10;;;;;;;2.54;71.19;102153.33;109734;1282;22320;-81
2022/01/24 18:11:45;;;;;;;126.40;91.70;;;;;;;2.50;70.89;102152.48;109813;1282;21886;-80
2022/01/24 18:14:22;;;;;;;112.60;85.10;;;;;;;2.47;71.11;102153.30;109830;1283;21938;-81
2022/01/24 18:16:59;;;;;;;112.00;81.10;;;;;;;2.46;71.42;102154.23;109934;1279;21922;-81
2022/01/24 18:19:29;;;;;;;113.00;84.00;;;;;;;2.51;71.67;102159.90;109618;1286;22327;-80
2022/01/24 18:22:02;;;;;;;124.40;97.10;;;;;;;2.52;71.71;102154.10;109715;1285;22354;-80
2022/01/24 18:24:43;;;;;;;162.10;127.00;;;;;;;2.53;71.56;102156.34;109103;1286;21898;-81
2022/01/24 18:27:21;;;;;;;120.80;94.00;;;;;;;2.54;71.57;102163.23;109396;1287;21985;-81
2022/01/24 18:29:52;;;;;;;104.00;80.00;;;;;;;2.49;71.77;102159.11;109485;1286;21896;-80
2022/01/24 18:32:35;;;;;;;107.40;82.90;;;;;;;2.43;71.88;102153.51;109391;1287;21979;-80
2022/01/24 18:35:11;;;;;;;106.30;85.40;;;;;;;2.46;72.29;102154.05;109088;1289;22004;-80
2022/01/24 18:37:49;;;;;;;115.10;90.60;;;;;;;2.49;72.32;102154.45;109142;1287;21811;-80
2022/01/24 18:40:27;;;;;;;92.50;71.80;;;;;;;2.52;72.48;102146.30;109857;1283;21892;-80
2022/01/24 18:43:04;;;;;;;96.20;74.30;;;;;;;2.56;72.51;102139.67;109849;1281;22025;-80
2022/01/24 18:45:57;;;;;;;;;;;;;;;;;;;;;
2022/01/24 18:48:34;;;;;;;85.90;67.40;;;;;;;2.57;72.44;102137.33;109895;1283;21997;-81
2022/01/24 18:51:35;;;;;;;87.20;66.20;;;;;;;2.56;72.50;102136.17;110014;1276;21924;-80
2022/01/24 18:54:10;;;;;;;109.40;81.30;;;;;;;2.59;72.80;102142.79;110243;1273;21925;-79
2022/01/24 18:56:43;;;;;;;;;;;;;;;2.59;72.88;102139.72;110351;1273;21987;-79
2022/01/24 18:59:13;;;;;;;88.80;69.70;;;;;;;2.48;72.65;102137.96;110345;1273;22034;-79
2022/01/24 19:01:47;;;;;;;89.60;68.90;;;;;;;2.50;72.98;102139.10;110521;1270;22385;-80
2022/01/24 19:04:24;;;;;;;97.00;71.00;;;;;;;2.47;73.14;102134.86;110529;1270;22401;-79
2022/01/24 19:07:05;;;;;;;85.70;66.00;;;;;;;2.49;73.13;102133.90;110658;1270;22004;-79
2022/01/24 19:10:06;;;;;;;81.30;64.40;;;;;;;2.51;73.23;102133.84;110628;1267;21923;-80
2022/01/24 19:12:54;;;;;;;84.40;65.50;;;;;;;2.49;73.22;102132.55;110652;1269;21965;-79
2022/01/24 19:15:29;;;;;;;90.00;68.30;;;;;;;2.53;73.55;102137.38;110147;1276;21959;-79
2022/01/24 19:18:15;;;;;;;89.50;71.90;;;;;;;2.54;73.57;102137.66;110013;1278;21933;-80